createdAt,value
2022-08-09T00:01:55.415Z,3.70
2022-08-09T00:04:34.197Z,3.92
2022-08-09T00:07:10.555Z,3.42
2022-08-09T00:09:39.305Z,4.00
2022-08-09T00:12:07.799Z,3.85
2022-08-09T00:14:38.038Z,3.80
2022-08-09T00:17:06.985Z,3.67
2022-08-09T00:19:34.787Z,3.72
2022-08-09T00:22:03.415Z,3.80
2022-08-09T00:24:33.605Z,3.53
2022-08-09T00:27:02.180Z,3.55
2022-08-09T00:30:10.183Z,3.47
2022-08-09T00:32:25.254Z,3.92
2022-08-09T00:34:55.715Z,3.38
2022-08-09T00:37:23.955Z,3.58
2022-08-09T00:40:12.464Z,3.35
2022-08-09T00:44:13.797Z,3.25
2022-08-09T00:45:26.500Z,3.72
2022-08-09T00:47:55.448Z,3.88
2022-08-09T00:50:24.595Z,3.83
2022-08-09T00:52:53.943Z,4.22
2022-08-09T00:55:54.230Z,4.45
2022-08-09T00:58:09.158Z,3.83
2022-08-09T01:00:44.103Z,3.60
2022-08-09T01:03:45.556Z,3.92
2022-08-09T01:06:35.166Z,4.35
2022-08-09T01:09:36.820Z,3.90
2022-08-09T01:12:22.732Z,3.97
2022-08-09T01:15:01.054Z,4.10
2022-08-09T01:17:47.125Z,3.67
2022-08-09T01:20:29.118Z,4.25
2022-08-09T01:24:02.357Z,3.83
2022-08-09T01:26:06.937Z,3.95
2022-08-09T01:28:38.098Z,4.15
2022-08-09T01:31:11.935Z,4.15
2022-08-09T01:34:03.662Z,3.63
2022-08-09T01:36:35.131Z,4.30
2022-08-09T01:39:03.553Z,3.97
2022-08-09T01:41:35.819Z,3.75
2022-08-09T01:44:06.783Z,3.90
2022-08-09T01:46:41.142Z,3.78
2022-08-09T01:49:18.002Z,4.32
2022-08-09T01:51:54.829Z,4.03
2022-08-09T01:54:32.908Z,4.43
2022-08-09T01:57:11.933Z,4.50
2022-08-09T01:59:51.640Z,4.15
2022-08-09T02:02:31.319Z,4.25
2022-08-09T02:05:11.851Z,4.07
2022-08-09T02:08:41.211Z,4.07
2022-08-09T02:10:51.669Z,4.22
2022-08-09T02:13:26.299Z,3.78
2022-08-09T02:16:09.436Z,4.10
2022-08-09T02:18:43.076Z,3.35
2022-08-09T02:21:22.147Z,3.88
2022-08-09T02:23:57.992Z,3.97
2022-08-09T02:26:30.053Z,4.10
2022-08-09T02:29:03.754Z,4.20
2022-08-09T02:31:37.141Z,4.32
2022-08-09T02:34:25.860Z,4.03
2022-08-09T02:37:07.854Z,4.43
2022-08-09T02:39:55.324Z,4.25
2022-08-09T02:42:37.586Z,4.70
2022-08-09T02:45:34.420Z,4.55
2022-08-09T02:48:19.500Z,5.07
2022-08-09T02:51:02.490Z,4.78
2022-08-09T02:53:37.232Z,4.55
2022-08-09T02:56:08.383Z,5.07
2022-08-09T02:58:37.883Z,4.32
2022-08-09T03:01:11.175Z,4.35
2022-08-09T03:04:17.094Z,4.35
2022-08-09T03:06:34.512Z,4.38
2022-08-09T03:09:06.419Z,4.38
2022-08-09T03:12:05.591Z,3.85
2022-08-09T03:14:28.160Z,3.80
2022-08-09T03:16:59.489Z,4.50
2022-08-09T03:19:57.933Z,4.00
2022-08-09T03:22:25.523Z,4.30
2022-08-09T03:25:06.531Z,4.35
2022-08-09T03:27:55.330Z,3.97
2022-08-09T03:30:29.719Z,4.43
2022-08-09T03:33:17.584Z,4.25
2022-08-09T03:36:16.169Z,4.25
2022-08-09T03:38:44.764Z,4.10
2022-08-09T03:41:16.301Z,4.47
2022-08-09T03:44:03.114Z,4.40
2022-08-09T03:46:36.958Z,3.80
2022-08-09T03:49:08.004Z,4.60
2022-08-09T03:51:58.624Z,4.80
2022-08-09T03:54:34.356Z,4.63
2022-08-09T03:57:20.322Z,4.40
2022-08-09T03:59:56.033Z,4.63
2022-08-09T04:02:31.383Z,4.82
2022-08-09T04:05:06.424Z,5.15
2022-08-09T04:07:52.387Z,5.07
2022-08-09T04:10:28.701Z,4.55
2022-08-09T04:13:04.235Z,4.35
2022-08-09T04:16:18.124Z,4.80
2022-08-09T04:18:21.379Z,4.55
2022-08-09T04:20:51.298Z,4.43
2022-08-09T04:23:24.768Z,4.90
2022-08-09T04:25:55.268Z,3.97
2022-08-09T04:28:31.370Z,4.75
2022-08-09T04:31:09.510Z,3.80
2022-08-09T04:33:53.082Z,4.60
2022-08-09T04:36:30.111Z,3.95
2022-08-09T04:39:05.141Z,4.63
2022-08-09T04:41:33.928Z,4.22
2022-08-09T04:44:14.435Z,4.57
2022-08-09T04:46:58.705Z,5.10
2022-08-09T04:49:52.884Z,4.63
2022-08-09T04:52:27.530Z,4.45
2022-08-09T04:54:59.452Z,4.38
2022-08-09T04:57:59.195Z,4.65
2022-08-09T05:00:16.667Z,4.53
2022-08-09T05:02:52.477Z,3.85
2022-08-09T05:05:32.413Z,4.25
2022-08-09T05:08:09.222Z,4.35
2022-08-09T05:10:36.842Z,4.47
2022-08-09T05:13:04.431Z,3.90
2022-08-09T05:15:38.996Z,4.03
2022-08-09T05:18:42.926Z,4.30
2022-08-09T05:20:58.018Z,4.47
2022-08-09T05:23:55.004Z,3.97
2022-08-09T05:26:26.647Z,4.05
2022-08-09T05:29:00.148Z,4.13
2022-08-09T05:31:44.055Z,3.80
2022-08-09T05:34:16.703Z,3.90
2022-08-09T05:36:47.002Z,4.22
2022-08-09T05:39:28.268Z,4.15
2022-08-09T05:41:56.628Z,3.78
2022-08-09T05:44:32.896Z,4.45
2022-08-09T05:47:05.439Z,3.80
2022-08-09T05:50:30.149Z,3.67
2022-08-09T05:52:24.835Z,3.60
2022-08-09T05:54:52.626Z,3.53
2022-08-09T05:57:25.170Z,3.95
2022-08-09T06:00:13.244Z,3.35
2022-08-09T06:02:42.185Z,3.30
2022-08-09T06:05:16.624Z,3.40
2022-08-09T06:07:44.636Z,3.20
2022-08-09T06:10:42.034Z,3.40
2022-08-09T06:13:20.343Z,3.17
2022-08-09T06:15:51.054Z,3.35
2022-08-09T06:18:23.877Z,3.60
2022-08-09T06:20:58.512Z,3.60
2022-08-09T06:23:55.832Z,2.70
2022-08-09T06:26:22.380Z,2.90
2022-08-09T06:29:00.638Z,2.92
2022-08-09T06:31:40.220Z,3.15
2022-08-09T06:34:23.438Z,3.20
2022-08-09T06:36:57.420Z,3.20
2022-08-09T06:39:48.100Z,2.85
2022-08-09T06:42:24.574Z,2.58
2022-08-09T06:44:57.456Z,2.67
2022-08-09T06:47:24.830Z,2.72
2022-08-09T06:50:14.313Z,2.90
2022-08-09T06:52:48.842Z,2.30
2022-08-09T06:55:23.390Z,2.30
2022-08-09T06:58:01.508Z,2.10
2022-08-09T07:00:54.026Z,2.25
2022-08-09T07:03:28.273Z,1.92
2022-08-09T07:06:03.468Z,2.00
2022-08-09T07:08:34.741Z,1.70
2022-08-09T07:11:06.411Z,1.83
2022-08-09T07:13:45.444Z,1.52
2022-08-09T07:16:41.037Z,1.67
2022-08-09T07:19:15.687Z,1.50
2022-08-09T07:21:55.358Z,1.38
2022-08-09T07:24:40.678Z,1.30
2022-08-09T07:27:27.329Z,1.60
2022-08-09T07:30:02.260Z,1.33
2022-08-09T07:32:33.696Z,1.63
2022-08-09T07:35:11.957Z,1.50
2022-08-09T07:37:45.877Z,1.67
2022-08-09T07:40:20.623Z,1.15
2022-08-09T07:42:57.093Z,1.52
2022-08-09T07:45:38.280Z,1.25
2022-08-09T07:48:25.567Z,1.35
2022-08-09T07:51:10.355Z,1.00
2022-08-09T07:54:05.321Z,0.90
2022-08-09T07:56:38.865Z,1.30
2022-08-09T07:59:33.613Z,1.30
2022-08-09T08:02:03.277Z,1.05
2022-08-09T08:04:33.098Z,1.00
2022-08-09T08:07:15.199Z,1.00
2022-08-09T08:09:55.219Z,1.10
2022-08-09T08:12:35.466Z,0.90
2022-08-09T08:15:07.510Z,0.95
2022-08-09T08:17:54.927Z,0.95
2022-08-09T08:20:30.472Z,0.80
2022-08-09T08:23:15.724Z,0.90
2022-08-09T08:25:48.077Z,3.60
2022-08-09T08:28:18.414Z,1.27
2022-08-09T08:30:53.794Z,1.15
2022-08-09T08:33:22.996Z,1.10
2022-08-09T08:36:00.451Z,1.50
2022-08-09T08:38:31.213Z,1.10
2022-08-09T08:40:58.820Z,1.02
2022-08-09T08:43:28.045Z,1.00
2022-08-09T08:46:31.961Z,1.60
2022-08-09T08:48:53.794Z,1.20
2022-08-09T08:51:23.555Z,1.33
2022-08-09T08:54:03.109Z,4.65
2022-08-09T08:56:41.114Z,1.60
2022-08-09T08:59:19.687Z,1.10
2022-08-09T09:01:52.689Z,0.90
2022-08-09T09:04:27.704Z,0.77
2022-08-09T09:06:58.606Z,5.00
2022-08-09T09:09:58.745Z,1.08
2022-08-09T09:12:20.382Z,1.80
2022-08-09T09:14:51.998Z,1.13
2022-08-09T09:17:20.966Z,1.02
2022-08-09T09:19:48.392Z,0.80
2022-08-09T09:22:26.731Z,0.90
2022-08-09T09:26:01.689Z,0.88
2022-08-09T09:28:05.727Z,0.93
2022-08-09T09:30:41.079Z,1.23
2022-08-09T09:33:15.957Z,0.60
2022-08-09T09:36:01.843Z,0.50
2022-08-09T09:38:50.977Z,0.65
2022-08-09T09:41:25.362Z,0.60
2022-08-09T09:44:11.575Z,0.50
2022-08-09T09:46:50.440Z,0.80
2022-08-09T09:49:32.060Z,0.55
2022-08-09T09:52:35.730Z,0.70
2022-08-09T09:55:16.448Z,0.70
2022-08-09T09:58:15.680Z,0.90
2022-08-09T10:00:54.247Z,0.88
2022-08-09T10:03:43.626Z,1.00
2022-08-09T10:06:12.546Z,0.80
2022-08-09T10:08:54.576Z,1.13
2022-08-09T10:11:59.139Z,1.05
2022-08-09T10:14:33.458Z,1.15
2022-08-09T10:17:39.700Z,0.82
2022-08-09T10:20:00.594Z,0.70
2022-08-09T10:22:38.193Z,0.77
2022-08-09T10:25:12.467Z,0.82
2022-08-09T10:27:45.059Z,0.93
2022-08-09T10:31:47.324Z,0.85
2022-08-09T10:33:44.846Z,1.08
2022-08-09T10:36:01.213Z,0.50
2022-08-09T10:38:33.748Z,0.80
2022-08-09T10:41:20.772Z,0.80
2022-08-09T10:43:59.051Z,0.93
2022-08-09T10:46:52.312Z,0.60
2022-08-09T10:49:54.282Z,0.77
2022-08-09T10:52:56.455Z,0.70
2022-08-09T10:55:55.098Z,0.40
2022-08-09T10:58:33.685Z,0.55
2022-08-09T11:03:03.300Z,0.40
2022-08-09T11:04:28.133Z,0.50
2022-08-09T11:06:59.800Z,0.52
2022-08-09T11:09:56.464Z,0.60
2022-08-09T11:12:30.265Z,0.57
2022-08-09T11:15:34.078Z,0.55
2022-08-09T11:18:06.125Z,0.85
2022-08-09T11:20:45.473Z,0.80
2022-08-09T11:23:13.758Z,0.95
2022-08-09T11:25:48.241Z,1.20
2022-08-09T11:28:38.698Z,1.00
2022-08-09T11:31:48.812Z,1.02
2022-08-09T11:34:44.102Z,0.80
2022-08-09T11:37:31.320Z,0.85
2022-08-09T11:40:17.798Z,0.80
2022-08-09T11:42:49.429Z,0.70
2022-08-09T11:45:42.109Z,0.75
2022-08-09T11:48:27.734Z,0.65
2022-08-09T11:52:48.858Z,0.80
2022-08-09T11:54:00.670Z,0.73
2022-08-09T11:56:42.045Z,1.02
2022-08-09T11:59:30.369Z,0.60
2022-08-09T12:02:21.205Z,0.50
2022-08-09T12:04:58.227Z,0.70
2022-08-09T12:07:41.467Z,1.85
2022-08-09T12:10:14.012Z,1.60
2022-08-09T12:13:03.805Z,2.60
2022-08-09T12:15:52.798Z,3.10
2022-08-09T12:18:29.563Z,1.10
2022-08-09T12:21:00.640Z,1.15
2022-08-09T12:24:00.442Z,1.35
2022-08-09T12:26:25.656Z,2.53
2022-08-09T12:29:15.410Z,0.80
2022-08-09T12:32:02.258Z,1.23
2022-08-09T12:34:42.996Z,2.25
2022-08-09T12:37:23.627Z,1.25
2022-08-09T12:40:11.077Z,1.13
2022-08-09T12:42:44.860Z,1.10
2022-08-09T12:45:34.266Z,1.75
2022-08-09T12:48:00.667Z,1.20
2022-08-09T12:50:28.640Z,1.30
2022-08-09T12:53:17.799Z,1.40
2022-08-09T12:56:11.831Z,4.13
2022-08-09T12:58:30.713Z,4.00
2022-08-09T13:01:01.496Z,0.93
2022-08-09T13:03:53.086Z,2.83
2022-08-09T13:06:34.336Z,1.40
2022-08-09T13:09:15.579Z,0.88
2022-08-09T13:11:47.123Z,0.85
2022-08-09T13:14:41.348Z,0.70
2022-08-09T13:17:43.830Z,1.10
2022-08-09T13:20:14.366Z,0.80
2022-08-09T13:23:05.801Z,1.10
2022-08-09T13:25:53.231Z,0.90
2022-08-09T13:28:33.977Z,0.82
2022-08-09T13:32:12.171Z,1.00
2022-08-09T13:33:55.458Z,1.15
2022-08-09T13:36:42.706Z,0.85
2022-08-09T13:41:19.251Z,1.10
2022-08-09T13:42:12.251Z,1.05
2022-08-09T13:44:43.134Z,1.23
2022-08-09T13:47:25.474Z,1.05
2022-08-09T13:50:17.849Z,1.00
2022-08-09T13:52:47.868Z,1.20
2022-08-09T13:55:17.550Z,0.98
2022-08-09T13:57:53.006Z,1.30
2022-08-09T14:00:28.923Z,1.13
2022-08-09T14:03:03.636Z,1.15
2022-08-09T14:06:00.571Z,1.02
2022-08-09T14:08:31.587Z,1.20
2022-08-09T14:11:00.606Z,0.73
2022-08-09T14:14:24.822Z,0.98
2022-08-09T14:16:28.223Z,1.05
2022-08-09T14:18:57.141Z,1.08
2022-08-09T14:21:29.528Z,0.90
2022-08-09T14:24:05.436Z,1.10
2022-08-09T14:26:38.301Z,0.90
2022-08-09T14:30:18.624Z,1.20
2022-08-09T14:31:56.799Z,1.10
2022-08-09T14:34:32.323Z,1.35
2022-08-09T14:37:08.397Z,1.02
2022-08-09T14:39:47.104Z,1.23
2022-08-09T14:42:31.744Z,0.80
2022-08-09T14:46:46.032Z,1.10
2022-08-09T14:48:00.172Z,1.10
2022-08-09T14:50:34.284Z,0.90
2022-08-09T14:53:12.137Z,0.90
2022-08-09T14:55:49.963Z,0.88
2022-08-09T14:58:19.099Z,1.10
2022-08-09T15:00:48.123Z,1.05
2022-08-09T15:03:19.966Z,1.02
2022-08-09T15:05:52.485Z,12.75
2022-08-09T15:08:25.750Z,4.53
2022-08-09T15:11:00.513Z,1.10
2022-08-09T15:13:48.654Z,0.98
2022-08-09T15:16:20.076Z,1.20
2022-08-09T15:18:48.308Z,1.30
2022-08-09T15:21:58.256Z,1.48
2022-08-09T15:24:13.031Z,2.25
2022-08-09T15:26:46.777Z,1.15
2022-08-09T15:30:48.302Z,1.00
2022-08-09T15:32:04.241Z,0.98
2022-08-09T15:34:35.116Z,1.13
2022-08-09T15:37:37.321Z,1.20
2022-08-09T15:40:20.096Z,1.45
2022-08-09T15:42:50.885Z,1.10
2022-08-09T15:45:21.746Z,1.00
2022-08-09T15:48:03.415Z,0.90
2022-08-09T15:50:34.421Z,1.98
2022-08-09T15:53:32.657Z,0.90
2022-08-09T15:56:20.948Z,1.20
2022-08-09T15:58:41.603Z,1.02
2022-08-09T16:01:09.015Z,1.15
2022-08-09T16:03:38.585Z,0.70
2022-08-09T16:06:29.368Z,1.35
2022-08-09T16:09:01.276Z,4.90
2022-08-09T16:11:32.959Z,1.10
2022-08-09T16:14:07.169Z,1.10
2022-08-09T16:16:42.049Z,1.08
2022-08-09T16:19:16.264Z,1.10
2022-08-09T16:21:51.965Z,1.17
2022-08-09T16:24:33.132Z,1.17
2022-08-09T16:27:02.466Z,1.50
2022-08-09T16:29:37.701Z,1.48
2022-08-09T16:32:33.054Z,0.90
2022-08-09T16:35:02.564Z,0.98
2022-08-09T16:37:55.830Z,1.13
2022-08-09T16:40:20.670Z,1.25
2022-08-09T16:42:57.330Z,1.30
2022-08-09T16:45:24.833Z,1.10
2022-08-09T16:48:40.192Z,0.98
2022-08-09T16:50:49.879Z,1.10
2022-08-09T16:53:34.033Z,1.30
2022-08-09T16:56:09.755Z,1.30
2022-08-09T16:58:39.901Z,0.88
2022-08-09T17:01:19.521Z,0.90
2022-08-09T17:03:52.731Z,1.10
2022-08-09T17:06:31.490Z,1.10
2022-08-09T17:09:17.590Z,1.25
2022-08-09T17:11:48.290Z,1.30
2022-08-09T17:14:27.945Z,1.67
2022-08-09T17:17:03.009Z,1.40
2022-08-09T17:19:46.630Z,1.38
2022-08-09T17:22:24.229Z,1.10
2022-08-09T17:25:03.466Z,1.58
2022-08-09T17:27:38.453Z,1.67
2022-08-09T17:30:12.742Z,1.40
2022-08-09T17:32:40.930Z,1.27
2022-08-09T17:35:13.353Z,1.20
2022-08-09T17:38:11.180Z,1.30
2022-08-09T17:40:35.068Z,1.20
2022-08-09T17:43:32.012Z,1.42
2022-08-09T17:46:04.431Z,1.40
2022-08-09T17:48:38.471Z,1.30
2022-08-09T17:51:17.279Z,1.20
2022-08-09T17:53:52.063Z,0.98
2022-08-09T17:56:27.268Z,1.25
2022-08-09T17:59:03.043Z,1.30
2022-08-09T18:01:57.863Z,1.20
2022-08-09T18:04:20.370Z,1.30
2022-08-09T18:06:55.285Z,1.50
2022-08-09T18:09:40.191Z,1.27
2022-08-09T18:12:20.402Z,1.45
2022-08-09T18:14:55.206Z,1.20
2022-08-09T18:18:01.450Z,1.30
2022-08-09T18:20:55.957Z,1.85
2022-08-09T18:23:05.155Z,2.00
2022-08-09T18:25:53.377Z,2.33
2022-08-09T18:30:38.264Z,2.03
2022-08-09T18:31:24.952Z,2.13
2022-08-09T18:34:05.010Z,2.67
2022-08-09T18:36:36.294Z,2.33
2022-08-09T18:39:06.634Z,2.30
2022-08-09T18:41:35.526Z,2.50
2022-08-09T18:44:12.915Z,2.10
2022-08-09T18:46:49.768Z,2.58
2022-08-09T18:49:32.209Z,2.17
2022-08-09T18:52:08.892Z,2.00
2022-08-09T18:54:42.210Z,1.90
2022-08-09T18:57:23.000Z,1.90
2022-08-09T18:59:55.440Z,2.20
2022-08-09T19:02:32.394Z,2.08
2022-08-09T19:05:04.114Z,1.88
2022-08-09T19:07:59.196Z,1.65
2022-08-09T19:10:37.394Z,2.20
2022-08-09T19:13:20.234Z,1.73
2022-08-09T19:15:50.183Z,1.65
2022-08-09T19:18:33.947Z,1.90
2022-08-09T19:21:11.415Z,2.20
2022-08-09T19:24:39.833Z,2.00
2022-08-09T19:26:32.125Z,2.30
2022-08-09T19:29:09.368Z,1.58
2022-08-09T19:31:44.836Z,1.40
2022-08-09T19:34:18.346Z,2.05
2022-08-09T19:36:55.703Z,2.10
2022-08-09T19:39:43.744Z,1.95
2022-08-09T19:42:15.244Z,2.03
2022-08-09T19:44:50.802Z,2.45
2022-08-09T19:47:23.305Z,2.00
2022-08-09T19:50:08.285Z,1.80
2022-08-09T19:52:51.921Z,2.70
2022-08-09T19:55:30.442Z,2.28
2022-08-09T19:57:58.398Z,2.10
2022-08-09T20:00:25.878Z,2.75
2022-08-09T20:04:17.183Z,2.33
2022-08-09T20:05:46.627Z,2.70
2022-08-09T20:08:25.010Z,2.97
2022-08-09T20:11:04.732Z,2.60
2022-08-09T20:13:36.866Z,2.83
2022-08-09T20:16:34.352Z,2.72
2022-08-09T20:19:42.009Z,2.95
2022-08-09T20:21:56.025Z,2.50
2022-08-09T20:24:31.822Z,2.83
2022-08-09T20:27:05.722Z,3.30
2022-08-09T20:29:39.749Z,2.95
2022-08-09T20:32:29.770Z,3.65
2022-08-09T20:34:58.470Z,3.10
2022-08-09T20:38:19.007Z,3.00
2022-08-09T20:40:18.410Z,2.78
2022-08-09T20:42:59.779Z,2.65
2022-08-09T20:46:00.452Z,2.90
2022-08-09T20:48:29.053Z,2.70
2022-08-09T20:51:00.977Z,2.90
2022-08-09T20:53:37.055Z,2.72
2022-08-09T20:56:21.242Z,3.40
2022-08-09T20:58:58.596Z,3.10
2022-08-09T21:01:34.653Z,3.20
2022-08-09T21:05:55.291Z,2.92
2022-08-09T21:07:12.862Z,3.13
2022-08-09T21:09:56.836Z,3.35
2022-08-09T21:15:23.836Z,2.92
2022-08-09T21:18:23.527Z,3.20
2022-08-09T21:20:54.517Z,2.70
2022-08-09T21:23:36.090Z,3.33
2022-08-09T21:26:12.708Z,3.13
2022-08-09T21:28:55.858Z,3.45
2022-08-09T21:31:24.285Z,3.35
2022-08-09T21:34:12.084Z,3.45
2022-08-09T21:36:39.456Z,3.53
2022-08-09T21:39:28.085Z,3.65
2022-08-09T21:42:11.046Z,3.83
2022-08-09T21:44:42.816Z,3.53
2022-08-09T21:47:17.615Z,3.55
2022-08-09T21:49:46.502Z,3.78
2022-08-09T21:52:20.287Z,3.53
2022-08-09T21:55:03.521Z,4.22
2022-08-09T21:57:39.362Z,3.22
2022-08-09T22:00:32.348Z,3.50
2022-08-09T22:03:06.828Z,3.35
2022-08-09T22:05:42.397Z,3.63
2022-08-09T22:08:14.762Z,3.85
2022-08-09T22:11:04.922Z,4.32
2022-08-09T22:13:35.224Z,3.90
2022-08-09T22:16:07.620Z,4.53
2022-08-09T22:18:53.758Z,4.18
2022-08-09T22:21:49.984Z,4.15
2022-08-09T22:24:21.133Z,4.88
2022-08-09T22:26:53.677Z,4.28
2022-08-09T22:29:28.872Z,4.10
2022-08-09T22:32:29.194Z,3.38
2022-08-09T22:35:02.580Z,4.10
2022-08-09T22:37:40.010Z,3.72
2022-08-09T22:40:10.615Z,4.00
2022-08-09T22:42:47.654Z,4.03
2022-08-09T22:48:10.615Z,4.00
2022-08-09T22:48:13.623Z,4.18
2022-08-09T22:50:53.047Z,4.10
2022-08-09T22:53:20.583Z,4.22
2022-08-09T22:56:31.369Z,4.00
2022-08-09T22:58:35.559Z,3.60
2022-08-09T23:01:05.469Z,4.28
2022-08-09T23:04:04.236Z,4.28
2022-08-09T23:06:32.832Z,4.15
2022-08-09T23:09:06.245Z,3.78
2022-08-09T23:11:34.530Z,3.90
2022-08-09T23:14:03.617Z,3.83
2022-08-09T23:16:31.738Z,3.72
2022-08-09T23:18:59.832Z,4.13
2022-08-09T23:21:33.262Z,3.83
2022-08-09T23:24:06.030Z,4.68
2022-08-09T23:26:39.199Z,3.33
2022-08-09T23:29:11.539Z,4.13
2022-08-09T23:31:38.959Z,3.85
2022-08-09T23:34:06.906Z,3.75
2022-08-09T23:36:35.867Z,3.88
2022-08-09T23:39:06.546Z,3.80
2022-08-09T23:41:35.492Z,4.07
2022-08-09T23:44:04.173Z,4.20
2022-08-09T23:46:32.757Z,4.63
2022-08-09T23:49:01.121Z,5.00
2022-08-09T23:51:28.479Z,4.38
2022-08-09T23:54:02.218Z,4.13
2022-08-09T23:56:53.552Z,4.53
2022-08-09T23:59:21.310Z,4.38
